Time;durP1;ratioP1;P1;durP2;ratioP2;P2;SDS_P1;SDS_P2;PMS_P1;PMS_P2;Temp;Humidity;BMP_temperature;BMP_pressure;BME280_temperature;BME280_humidity;BME280_pressure;Samples;Min_cycle;Max_cycle;Signal;HPM_P1;HPM_P2
2023/05/14 00:02:15;;;;;;;16.67;11.98;;;;;;;;;;5094081;28;20111;-71
2023/05/14 00:04:41;;;;;;;13.63;10.98;;;;;;;;;;5097861;28;20035;-78
2023/05/14 00:07:07;;;;;;;11.80;10.38;;;;;;;;;;5091565;28;20035;-80
2023/05/14 00:09:34;;;;;;;12.98;10.20;;;;;;;;;;5081692;28;20017;-79
2023/05/14 00:12:00;;;;;;;14.50;10.77;;;;;;;;;;5086605;28;20016;-81
2023/05/14 00:14:26;;;;;;;12.98;10.68;;;;;;;;;;5059024;28;20024;-79
2023/05/14 00:16:52;;;;;;;11.52;10.32;;;;;;;;;;5077558;28;20025;-80
2023/05/14 00:19:18;;;;;;;11.80;10.48;;;;;;;;;;5071012;28;20029;-70
2023/05/14 00:21:44;;;;;;;13.18;11.77;;;;;;;;;;5095490;28;20029;-79
2023/05/14 00:24:10;;;;;;;14.52;11.60;;;;;;;;;;5094364;28;20024;-80
2023/05/14 00:26:36;;;;;;;12.15;10.82;;;;;;;;;;5086820;28;20035;-74
2023/05/14 00:29:02;;;;;;;13.40;11.50;;;;;;;;;;5069174;28;20028;-80
2023/05/14 00:31:28;;;;;;;15.63;12.20;;;;;;;;;;5069959;28;20103;-79
2023/05/14 00:33:54;;;;;;;14.35;12.45;;;;;;;;;;5073684;28;20530;-79
2023/05/14 00:36:20;;;;;;;12.77;11.48;;;;;;;;;;5074191;28;20425;-78
2023/05/14 00:38:45;;;;;;;13.00;11.60;;;;;;;;;;5076732;28;20088;-80
2023/05/14 00:41:11;;;;;;;12.18;10.80;;;;;;;;;;5075868;28;20472;-80
2023/05/14 00:43:38;;;;;;;12.13;10.30;;;;;;;;;;5072590;28;20172;-78
2023/05/14 00:46:04;;;;;;;12.65;10.68;;;;;;;;;;5073604;28;20028;-78
2023/05/14 00:48:31;;;;;;;10.90;9.80;;;;;;;;;;5070262;28;20040;-80
2023/05/14 00:50:57;;;;;;;13.50;10.23;;;;;;;;;;5072903;28;20024;-79
2023/05/14 00:53:23;;;;;;;12.30;10.80;;;;;;;;;;5071458;28;20026;-79
2023/05/14 00:55:49;;;;;;;15.32;13.70;;;;;;;;;;5069844;28;20154;-78
2023/05/14 00:58:15;;;;;;;14.38;12.73;;;;;;;;;;5067064;28;20036;-71
2023/05/14 01:00:41;;;;;;;13.90;11.93;;;;;;;;;;5081186;28;20021;-73
2023/05/14 01:03:08;;;;;;;13.15;11.45;;;;;;;;;;5081298;28;20374;-81
2023/05/14 01:05:37;;;;;;;18.63;14.25;;;;;;;;;;5074784;28;20020;-80
2023/05/14 01:08:06;;;;;;;13.27;11.88;;;;;;;;;;5072344;28;20078;-79
2023/05/14 01:10:45;;;;;;;14.43;12.93;;;;;;;;;;5074014;28;20048;-80
2023/05/14 01:13:14;;;;;;;15.23;13.50;;;;;;;;;;5075242;28;20023;-78
2023/05/14 01:15:41;;;;;;;17.02;13.00;;;;;;;;;;5070842;28;20100;-78
2023/05/14 01:18:08;;;;;;;17.20;14.07;;;;;;;;;;5071622;28;20040;-79
2023/05/14 01:20:35;;;;;;;15.02;12.93;;;;;;;;;;5071550;28;20025;-79
2023/05/14 01:23:01;;;;;;;17.35;14.10;;;;;;;;;;5070722;28;20027;-79
2023/05/14 01:25:28;;;;;;;17.13;13.77;;;;;;;;;;5073369;28;20099;-79
2023/05/14 01:27:54;;;;;;;14.10;12.48;;;;;;;;;;5088507;28;20063;-80
2023/05/14 01:30:36;;;;;;;18.00;13.75;;;;;;;;;;5066487;28;20083;-73
2023/05/14 01:33:05;;;;;;;16.88;13.88;;;;;;;;;;5063386;28;20412;-81
2023/05/14 01:35:31;;;;;;;21.52;15.95;;;;;;;;;;5064915;28;20029;-81
2023/05/14 01:38:00;;;;;;;16.38;14.57;;;;;;;;;;5067747;28;20029;-80
2023/05/14 01:40:27;;;;;;;16.63;14.10;;;;;;;;;;5071121;28;20035;-79
2023/05/14 01:42:53;;;;;;;16.90;14.20;;;;;;;;;;5071485;28;20107;-80
2023/05/14 01:45:20;;;;;;;14.43;12.85;;;;;;;;;;5070367;28;20376;-79
2023/05/14 01:47:46;;;;;;;18.17;15.02;;;;;;;;;;5067192;28;20040;-80
2023/05/14 01:50:12;;;;;;;16.63;13.60;;;;;;;;;;5072102;28;20373;-81
2023/05/14 01:52:38;;;;;;;15.57;13.85;;;;;;;;;;5070099;28;20055;-80
2023/05/14 01:55:04;;;;;;;19.63;15.95;;;;;;;;;;5071826;28;20031;-81
2023/05/14 01:57:31;;;;;;;18.13;15.60;;;;;;;;;;5059592;28;20541;-81
2023/05/14 01:59:57;;;;;;;18.95;14.75;;;;;;;;;;5066720;28;20044;-81
2023/05/14 02:02:23;;;;;;;16.33;14.23;;;;;;;;;;5070478;28;20032;-80
2023/05/14 02:04:49;;;;;;;18.98;15.65;;;;;;;;;;5069421;28;20025;-79
2023/05/14 02:07:15;;;;;;;16.65;14.85;;;;;;;;;;5073102;28;20020;-73
2023/05/14 02:09:41;;;;;;;17.10;14.75;;;;;;;;;;5070911;28;20020;-80
2023/05/14 02:12:08;;;;;;;20.75;16.58;;;;;;;;;;5071853;28;20013;-80
2023/05/14 02:14:34;;;;;;;19.85;16.77;;;;;;;;;;5069986;28;20082;-79
2023/05/14 02:17:00;;;;;;;20.15;16.65;;;;;;;;;;5070870;28;20020;-80
2023/05/14 02:19:26;;;;;;;18.45;15.90;;;;;;;;;;5070288;28;20104;-80
2023/05/14 02:21:52;;;;;;;16.42;13.70;;;;;;;;;;5066991;28;20028;-81
2023/05/14 02:24:17;;;;;;;17.25;14.80;;;;;;;;;;5057745;28;20021;-73
2023/05/14 02:26:43;;;;;;;16.35;14.52;;;;;;;;;;5071140;28;20537;-81
2023/05/14 02:29:10;;;;;;;19.70;15.98;;;;;;;;;;5070819;28;20028;-79
2023/05/14 02:31:36;;;;;;;18.73;15.85;;;;;;;;;;5062185;28;20480;-80
2023/05/14 02:34:02;;;;;;;17.40;15.57;;;;;;;;;;5061708;28;20029;-80
2023/05/14 02:36:28;;;;;;;17.92;15.25;;;;;;;;;;5077880;28;20111;-80
2023/05/14 02:38:54;;;;;;;16.75;14.68;;;;;;;;;;5052132;28;20025;-79
2023/05/14 02:41:20;;;;;;;19.45;15.57;;;;;;;;;;5067652;28;20021;-80
2023/05/14 02:43:46;;;;;;;18.20;14.48;;;;;;;;;;5070658;28;20476;-81
2023/05/14 02:46:12;;;;;;;17.67;14.98;;;;;;;;;;5070672;28;20031;-81
2023/05/14 02:48:38;;;;;;;17.45;15.60;;;;;;;;;;5068970;28;20053;-80
2023/05/14 02:51:04;;;;;;;18.50;14.73;;;;;;;;;;5058511;28;20368;-80
2023/05/14 02:53:30;;;;;;;17.73;15.07;;;;;;;;;;5069862;28;20096;-80
2023/05/14 02:55:56;;;;;;;16.65;14.23;;;;;;;;;;5070731;28;20116;-81
2023/05/14 02:58:22;;;;;;;19.20;16.63;;;;;;;;;;5059345;28;20036;-80
2023/05/14 03:00:48;;;;;;;20.13;16.50;;;;;;;;;;5072504;28;20028;-81
2023/05/14 03:03:14;;;;;;;16.83;14.82;;;;;;;;;;5073740;28;20488;-73
2023/05/14 03:05:40;;;;;;;18.42;16.00;;;;;;;;;;5075953;28;20047;-80
2023/05/14 03:08:06;;;;;;;18.45;15.70;;;;;;;;;;5074050;28;20074;-81
2023/05/14 03:10:32;;;;;;;20.15;15.57;;;;;;;;;;5072729;28;20032;-81
2023/05/14 03:12:58;;;;;;;19.73;14.73;;;;;;;;;;5064791;28;20100;-80
2023/05/14 03:15:24;;;;;;;17.80;14.85;;;;;;;;;;5073373;28;20024;-81
2023/05/14 03:17:50;;;;;;;17.13;15.27;;;;;;;;;;5073556;28;20032;-79
2023/05/14 03:20:16;;;;;;;16.02;13.18;;;;;;;;;;5073619;28;20074;-72
2023/05/14 03:22:42;;;;;;;13.13;11.45;;;;;;;;;;5066121;28;20070;-81
2023/05/14 03:25:08;;;;;;;14.10;12.20;;;;;;;;;;5074219;28;20096;-81
2023/05/14 03:27:34;;;;;;;12.55;11.10;;;;;;;;;;5068977;28;20020;-80
2023/05/14 03:30:00;;;;;;;11.65;10.38;;;;;;;;;;5073201;28;20143;-82
2023/05/14 03:32:26;;;;;;;12.93;11.20;;;;;;;;;;5071381;28;20032;-81
2023/05/14 03:34:52;;;;;;;15.10;11.68;;;;;;;;;;5060673;28;20130;-82
2023/05/14 03:37:18;;;;;;;13.63;11.60;;;;;;;;;;5073299;28;20032;-73
2023/05/14 03:39:44;;;;;;;14.95;11.40;;;;;;;;;;5071428;28;20020;-81
2023/05/14 03:42:10;;;;;;;14.43;12.10;;;;;;;;;;5070827;28;20096;-81
2023/05/14 03:44:36;;;;;;;11.90;10.70;;;;;;;;;;5072321;28;20250;-81
2023/05/14 03:47:02;;;;;;;12.38;11.07;;;;;;;;;;5073992;28;20028;-82
2023/05/14 03:49:28;;;;;;;11.93;10.60;;;;;;;;;;5071499;28;20052;-82
2023/05/14 03:51:54;;;;;;;13.82;11.38;;;;;;;;;;5073985;28;20039;-83
2023/05/14 03:54:20;;;;;;;14.15;12.75;;;;;;;;;;5072425;28;20016;-81
2023/05/14 03:56:46;;;;;;;15.90;13.15;;;;;;;;;;5073517;28;20039;-82
2023/05/14 03:59:12;;;;;;;13.23;11.57;;;;;;;;;;5065791;28;20078;-82
2023/05/14 04:01:38;;;;;;;12.73;11.40;;;;;;;;;;5073003;28;20231;-81
2023/05/14 04:04:04;;;;;;;14.77;11.93;;;;;;;;;;5073146;28;20066;-80
2023/05/14 04:06:30;;;;;;;11.68;9.93;;;;;;;;;;5076068;28;20043;-80
2023/05/14 04:08:56;;;;;;;14.60;12.13;;;;;;;;;;5072034;28;20496;-81
2023/05/14 04:11:22;;;;;;;12.95;11.10;;;;;;;;;;5072645;28;20094;-82
2023/05/14 04:13:48;;;;;;;12.85;11.55;;;;;;;;;;5072868;28;20028;-81
2023/05/14 04:16:14;;;;;;;14.95;10.98;;;;;;;;;;5072193;28;20024;-75
2023/05/14 04:18:40;;;;;;;13.05;11.70;;;;;;;;;;5071303;28;20040;-82
2023/05/14 04:21:06;;;;;;;13.60;10.88;;;;;;;;;;5075583;28;20032;-82
2023/05/14 04:23:32;;;;;;;12.63;10.80;;;;;;;;;;5075384;28;20113;-81
2023/05/14 04:25:58;;;;;;;12.48;11.15;;;;;;;;;;5072704;28;20021;-81
2023/05/14 04:28:24;;;;;;;12.75;9.43;;;;;;;;;;5075731;28;20013;-82
2023/05/14 04:30:51;;;;;;;12.68;10.30;;;;;;;;;;5074661;28;20077;-81
2023/05/14 04:33:17;;;;;;;11.57;10.27;;;;;;;;;;5077540;28;20390;-73
2023/05/14 04:35:44;;;;;;;13.13;11.25;;;;;;;;;;5071329;28;20036;-81
2023/05/14 04:38:12;;;;;;;12.18;10.38;;;;;;;;;;5072488;28;20028;-81
2023/05/14 04:40:38;;;;;;;12.57;10.13;;;;;;;;;;5080977;28;20024;-79
2023/05/14 04:43:05;;;;;;;13.05;10.75;;;;;;;;;;5082801;28;20400;-79
2023/05/14 04:45:31;;;;;;;15.18;11.02;;;;;;;;;;5081103;28;20036;-81
2023/05/14 04:47:57;;;;;;;13.32;11.73;;;;;;;;;;5077568;28;20041;-80
2023/05/14 04:50:23;;;;;;;12.23;10.48;;;;;;;;;;5079163;28;20032;-80
2023/05/14 04:52:49;;;;;;;12.82;10.18;;;;;;;;;;5079101;28;20078;-80
2023/05/14 04:55:15;;;;;;;14.10;10.55;;;;;;;;;;5080336;28;20012;-72
2023/05/14 04:57:41;;;;;;;12.18;10.43;;;;;;;;;;5081659;28;20116;-80
2023/05/14 05:00:08;;;;;;;12.90;10.27;;;;;;;;;;5079699;28;20217;-81
2023/05/14 05:02:35;;;;;;;10.65;9.55;;;;;;;;;;5074682;28;20071;-80
2023/05/14 05:05:01;;;;;;;12.75;10.75;;;;;;;;;;5069971;28;20025;-80
2023/05/14 05:07:27;;;;;;;12.95;10.70;;;;;;;;;;5072706;28;20016;-81
2023/05/14 05:09:53;;;;;;;11.77;9.63;;;;;;;;;;5071831;28;20358;-81
2023/05/14 05:12:20;;;;;;;12.95;10.43;;;;;;;;;;5070762;28;20021;-74
2023/05/14 05:14:46;;;;;;;11.77;10.40;;;;;;;;;;5070089;28;20067;-83
2023/05/14 05:17:12;;;;;;;11.45;9.65;;;;;;;;;;5069239;28;20048;-81
2023/05/14 05:19:38;;;;;;;10.63;9.43;;;;;;;;;;5070033;28;20038;-82
2023/05/14 05:22:04;;;;;;;13.77;10.05;;;;;;;;;;5070612;28;20103;-81
2023/05/14 05:24:30;;;;;;;12.18;10.85;;;;;;;;;;5070819;28;20025;-82
2023/05/14 05:26:56;;;;;;;11.77;9.98;;;;;;;;;;5074597;28;20031;-81
2023/05/14 05:29:22;;;;;;;12.23;10.88;;;;;;;;;;5074802;28;20021;-82
2023/05/14 05:31:48;;;;;;;11.48;10.27;;;;;;;;;;5053061;28;20116;-81
2023/05/14 05:34:15;;;;;;;11.75;10.32;;;;;;;;;;5065302;28;20020;-76
2023/05/14 05:36:41;;;;;;;12.40;10.40;;;;;;;;;;5061707;28;20036;-80
2023/05/14 05:39:07;;;;;;;14.00;10.90;;;;;;;;;;5062335;28;20469;-79
2023/05/14 05:41:33;;;;;;;13.30;10.35;;;;;;;;;;5065768;28;20107;-81
2023/05/14 05:43:58;;;;;;;13.80;10.68;;;;;;;;;;5064674;28;20024;-82
2023/05/14 05:46:24;;;;;;;11.52;10.30;;;;;;;;;;5058953;28;20029;-84
2023/05/14 05:48:52;;;;;;;13.73;11.05;;;;;;;;;;5069266;28;20517;-78
2023/05/14 05:51:18;;;;;;;11.80;10.30;;;;;;;;;;5070853;28;20039;-76
2023/05/14 05:53:44;;;;;;;13.27;10.02;;;;;;;;;;5070927;28;20021;-81
2023/05/14 05:56:10;;;;;;;14.15;10.82;;;;;;;;;;5070431;28;20033;-82
2023/05/14 05:58:35;;;;;;;11.02;9.85;;;;;;;;;;5065748;28;20025;-80
2023/05/14 06:01:01;;;;;;;13.98;10.20;;;;;;;;;;5071337;28;20453;-80
2023/05/14 06:03:27;;;;;;;13.73;10.95;;;;;;;;;;5070052;28;20092;-75
2023/05/14 06:05:53;;;;;;;11.13;9.82;;;;;;;;;;5069973;28;20020;-83
2023/05/14 06:08:19;;;;;;;13.90;11.27;;;;;;;;;;5068634;28;20074;-79
2023/05/14 06:10:45;;;;;;;12.05;10.23;;;;;;;;;;5064188;28;20047;-73
2023/05/14 06:13:12;;;;;;;14.23;10.05;;;;;;;;;;5055127;28;20029;-78
2023/05/14 06:15:38;;;;;;;13.32;10.02;;;;;;;;;;5069144;28;20626;-76
2023/05/14 06:18:04;;;;;;;10.88;9.38;;;;;;;;;;5069699;28;20045;-79
2023/05/14 06:20:30;;;;;;;11.38;9.32;;;;;;;;;;5063438;28;20020;-78
2023/05/14 06:22:56;;;;;;;11.65;9.27;;;;;;;;;;5068778;28;20547;-77
2023/05/14 06:25:22;;;;;;;12.45;10.63;;;;;;;;;;5069173;28;20028;-88
2023/05/14 06:27:48;;;;;;;9.63;8.65;;;;;;;;;;5067593;28;20108;-76
2023/05/14 06:30:14;;;;;;;12.18;9.32;;;;;;;;;;5072772;28;20428;-74
2023/05/14 06:32:40;;;;;;;10.50;9.10;;;;;;;;;;5070733;28;20017;-74
2023/05/14 06:35:07;;;;;;;10.70;8.52;;;;;;;;;;5071154;28;20154;-78
2023/05/14 06:37:33;;;;;;;10.02;9.00;;;;;;;;;;5075223;28;20035;-75
2023/05/14 06:39:59;;;;;;;10.35;9.25;;;;;;;;;;5077571;28;20396;-77
2023/05/14 06:42:25;;;;;;;12.80;8.52;;;;;;;;;;5063772;28;20025;-73
2023/05/14 06:44:51;;;;;;;9.15;8.25;;;;;;;;;;5067376;28;20098;-84
2023/05/14 06:47:17;;;;;;;11.70;9.43;;;;;;;;;;5060970;28;20024;-70
2023/05/14 06:49:43;;;;;;;9.90;8.63;;;;;;;;;;5062932;28;20041;-74
2023/05/14 06:52:09;;;;;;;13.32;8.65;;;;;;;;;;5060481;28;20021;-72
2023/05/14 06:54:35;;;;;;;8.90;8.00;;;;;;;;;;5064559;28;20094;-71
2023/05/14 06:57:01;;;;;;;9.20;8.32;;;;;;;;;;5066107;28;20114;-77
2023/05/14 06:59:27;;;;;;;12.73;8.80;;;;;;;;;;5073013;28;20472;-83
2023/05/14 07:01:53;;;;;;;11.82;10.05;;;;;;;;;;5074544;28;20028;-86
2023/05/14 07:04:19;;;;;;;10.88;9.70;;;;;;;;;;5072215;28;20048;-69
2023/05/14 07:06:45;;;;;;;9.57;8.60;;;;;;;;;;5072887;28;20103;-78
2023/05/14 07:09:12;;;;;;;9.23;8.25;;;;;;;;;;5067232;28;20021;-73
2023/05/14 07:11:38;;;;;;;9.63;8.63;;;;;;;;;;5070472;28;20035;-75
2023/05/14 07:14:04;;;;;;;11.30;9.35;;;;;;;;;;5066966;28;20044;-77
2023/05/14 07:16:30;;;;;;;11.27;8.85;;;;;;;;;;5072133;28;20027;-77
2023/05/14 07:18:56;;;;;;;11.85;8.88;;;;;;;;;;5072066;28;20100;-79
2023/05/14 07:21:22;;;;;;;10.65;9.10;;;;;;;;;;5072187;28;20128;-79
2023/05/14 07:23:48;;;;;;;9.65;8.23;;;;;;;;;;5074146;28;20074;-83
2023/05/14 07:26:14;;;;;;;10.55;9.18;;;;;;;;;;5076573;28;20068;-76
2023/05/14 07:28:40;;;;;;;13.05;9.05;;;;;;;;;;5081705;28;20028;-76
2023/05/14 07:31:07;;;;;;;12.30;10.07;;;;;;;;;;5069877;28;20112;-77
2023/05/14 07:33:34;;;;;;;10.88;9.13;;;;;;;;;;5067981;28;20083;-75
2023/05/14 07:36:00;;;;;;;10.68;9.27;;;;;;;;;;5067426;28;20032;-75
2023/05/14 07:38:26;;;;;;;10.70;9.35;;;;;;;;;;5063773;28;20029;-78
2023/05/14 07:40:52;;;;;;;12.07;9.00;;;;;;;;;;5070408;28;20036;-80
2023/05/14 07:43:18;;;;;;;13.90;9.57;;;;;;;;;;5071251;28;20024;-73
2023/05/14 07:45:44;;;;;;;11.23;8.80;;;;;;;;;;5077940;28;20039;-72
2023/05/14 07:48:10;;;;;;;9.40;8.35;;;;;;;;;;5074371;28;20482;-76
2023/05/14 07:50:37;;;;;;;11.50;9.35;;;;;;;;;;5071917;28;20029;-74
2023/05/14 07:53:03;;;;;;;9.38;8.20;;;;;;;;;;5069220;28;20120;-73
2023/05/14 07:55:29;;;;;;;10.02;8.25;;;;;;;;;;5072299;28;20138;-73
2023/05/14 07:57:55;;;;;;;9.85;8.48;;;;;;;;;;5071366;28;20036;-75
2023/05/14 08:00:21;;;;;;;9.85;8.85;;;;;;;;;;5071420;28;20101;-72
2023/05/14 08:02:47;;;;;;;8.88;8.02;;;;;;;;;;5068088;28;20044;-73
2023/05/14 08:05:14;;;;;;;11.65;9.32;;;;;;;;;;5072715;28;20060;-75
2023/05/14 08:07:40;;;;;;;11.05;8.98;;;;;;;;;;5069756;28;20071;-77
2023/05/14 08:10:06;;;;;;;14.27;8.50;;;;;;;;;;5072058;28;20016;-78
2023/05/14 08:12:33;;;;;;;11.70;9.70;;;;;;;;;;5071336;28;20059;-74
2023/05/14 08:14:58;;;;;;;10.00;8.70;;;;;;;;;;5059631;28;20017;-73
2023/05/14 08:17:24;;;;;;;10.15;8.68;;;;;;;;;;5057809;28;20370;-73
2023/05/14 08:19:50;;;;;;;8.52;7.70;;;;;;;;;;5061931;28;20063;-76
2023/05/14 08:22:16;;;;;;;9.57;8.63;;;;;;;;;;5059752;28;20049;-74
2023/05/14 08:24:42;;;;;;;9.50;8.50;;;;;;;;;;5077023;28;20027;-71
2023/05/14 08:27:09;;;;;;;8.85;8.05;;;;;;;;;;5077114;28;20028;-73
2023/05/14 08:29:35;;;;;;;10.05;8.80;;;;;;;;;;5068942;28;20052;-71
2023/05/14 08:32:01;;;;;;;9.40;8.23;;;;;;;;;;5072295;28;20025;-88
2023/05/14 08:34:27;;;;;;;9.45;8.55;;;;;;;;;;5071489;28;20027;-72
2023/05/14 08:36:54;;;;;;;11.48;8.80;;;;;;;;;;5072898;28;20028;-73
2023/05/14 08:39:20;;;;;;;10.90;9.80;;;;;;;;;;5064774;28;20032;-73
2023/05/14 08:41:45;;;;;;;10.75;9.55;;;16.80;99.90;;;;;;5064437;28;20020;-75
2023/05/14 08:44:35;;;;;;;10.90;9.30;;;16.80;99.90;;;;;;5071901;28;20021;-76
2023/05/14 08:47:00;;;;;;;13.32;10.38;;;16.70;99.90;;;;;;5058741;28;20473;-75
2023/05/14 08:49:42;;;;;;;12.35;10.30;;;16.40;99.90;;;;;;5044290;28;20087;-76
2023/05/14 08:52:09;;;;;;;10.88;9.05;;;16.50;99.90;;;;;;5059240;28;20503;-75
2023/05/14 08:54:35;;;;;;;10.77;9.65;;;16.60;99.90;;;;;;5068968;28;20082;-76
2023/05/14 08:57:03;;;;;;;10.40;9.32;;;16.80;99.90;;;;;;5067076;28;20036;-75
2023/05/14 08:59:28;;;;;;;10.07;9.00;;;16.90;99.90;;;;;;5065437;28;20465;-77
2023/05/14 09:01:56;;;;;;;11.15;10.05;;;17.00;99.90;;;;;;5070409;28;20082;-78
2023/05/14 09:04:23;;;;;;;10.57;9.45;;;17.00;99.90;;;;;;5068871;28;20064;-75
2023/05/14 09:06:53;;;;;;;11.40;9.38;;;17.10;99.90;;;;;;5070800;28;20115;-76
2023/05/14 09:09:22;;;;;;;11.63;10.43;;;17.20;99.90;;;;;;5069045;28;20488;-74
2023/05/14 09:11:50;;;;;;;16.05;10.40;;;17.10;99.90;;;;;;5070343;28;20036;-75
2023/05/14 09:14:15;;;;;;;11.27;9.82;;;17.00;99.90;;;;;;5069978;28;20036;-74
2023/05/14 09:16:44;;;;;;;12.27;10.43;;;17.00;99.90;;;;;;5069818;28;20086;-74
2023/05/14 09:19:14;;;;;;;10.10;9.10;;;16.90;99.90;;;;;;5069084;28;20571;-76
2023/05/14 09:21:40;;;;;;;11.85;10.02;;;16.90;99.90;;;;;;5067881;28;20115;-78
2023/05/14 09:24:06;;;;;;;11.88;10.23;;;17.10;99.90;;;;;;5068490;28;20052;-77
2023/05/14 09:26:33;;;;;;;12.15;10.18;;;17.20;99.90;;;;;;5069442;28;20033;-74
2023/05/14 09:29:03;;;;;;;13.10;10.43;;;17.40;99.90;;;;;;5065404;28;20507;-74
2023/05/14 09:31:30;;;;;;;10.57;9.25;;;17.50;99.90;;;;;;5069436;28;20469;-76
2023/05/14 09:33:56;;;;;;;10.05;8.52;;;17.80;99.90;;;;;;5063512;28;20033;-75
2023/05/14 09:36:23;;;;;;;11.18;8.65;;;18.10;99.90;;;;;;5069448;28;20033;-75
2023/05/14 09:38:49;;;;;;;12.48;9.13;;;18.20;99.90;;;;;;5067733;28;20036;-75
2023/05/14 09:41:15;;;;;;;10.40;9.30;;;18.20;99.90;;;;;;5059059;28;20037;-73
2023/05/14 09:43:41;;;;;;;9.57;8.65;;;18.20;99.90;;;;;;5053678;28;20064;-75
2023/05/14 09:46:06;;;;;;;14.25;11.18;;;18.40;99.90;;;;;;5066398;28;20043;-76
2023/05/14 09:48:32;;;;;;;13.95;11.13;;;18.70;99.90;;;;;;5062326;28;20478;-75
2023/05/14 09:50:57;;;;;;;10.30;9.20;;;18.50;99.90;;;;;;5069862;28;20107;-76
2023/05/14 09:53:23;;;;;;;9.43;8.30;;;18.40;99.90;;;;;;5068519;28;20039;-74
2023/05/14 09:55:49;;;;;;;10.13;8.57;;;18.20;99.90;;;;;;5069714;28;20029;-77
2023/05/14 09:58:15;;;;;;;10.50;8.73;;;18.10;99.90;;;;;;5069171;28;20436;-74
2023/05/14 10:00:46;;;;;;;11.07;8.95;;;18.00;99.90;;;;;;5044911;28;20020;-75
2023/05/14 10:03:13;;;;;;;9.73;8.73;;;17.70;99.90;;;;;;5068280;28;20036;-76
2023/05/14 10:05:41;;;;;;;11.40;7.55;;;17.50;99.90;;;;;;5069308;28;20035;-74
2023/05/14 10:08:16;;;;;;;10.05;8.30;;;17.30;99.90;;;;;;5069103;28;20029;-76
2023/05/14 10:10:42;;;;;;;8.40;7.55;;;17.30;99.90;;;;;;5081620;28;20032;-75
2023/05/14 10:13:21;;;;;;;10.05;8.27;;;17.30;99.90;;;;;;5023487;28;20031;-75
2023/05/14 10:15:50;;;;;;;8.65;7.75;;;17.30;99.90;;;;;;5064071;28;20401;-74
2023/05/14 10:18:18;;;;;;;10.02;8.10;;;17.30;99.90;;;;;;5067688;28;20477;-73
2023/05/14 10:20:52;;;;;;;8.63;7.72;;;17.30;99.90;;;;;;5069182;28;20152;-76
2023/05/14 10:23:17;;;;;;;9.52;7.20;;;17.30;99.90;;;;;;5068664;28;20468;-75
2023/05/14 10:25:44;;;;;;;8.43;7.50;;;17.40;99.90;;;;;;5070609;28;20029;-77
2023/05/14 10:28:10;;;;;;;8.18;7.38;;;17.50;99.90;;;;;;5069360;28;20036;-81
2023/05/14 10:30:44;;;;;;;9.27;7.47;;;17.70;99.90;;;;;;5069070;28;20672;-79
2023/05/14 10:33:15;;;;;;;8.73;7.22;;;17.90;99.90;;;;;;5068208;28;20428;-81
2023/05/14 10:36:02;;;;;;;8.30;7.50;;;18.10;99.90;;;;;;5062887;28;20096;-75
2023/05/14 10:38:28;;;;;;;10.95;8.48;;;18.20;99.90;;;;;;5066443;28;20037;-74
2023/05/14 10:40:59;;;;;;;8.07;6.90;;;18.30;99.90;;;;;;5068905;28;20028;-74
2023/05/14 10:43:29;;;;;;;7.80;6.53;;;18.30;99.90;;;;;;5057577;28;20033;-75
2023/05/14 10:45:56;;;;;;;7.43;6.72;;;18.30;99.90;;;;;;5055111;28;20364;-74
2023/05/14 10:48:23;;;;;;;8.27;6.65;;;18.40;99.90;;;;;;5063368;28;20121;-73
2023/05/14 10:50:52;;;;;;;9.25;6.68;;;18.80;99.90;;;;;;5064205;28;20510;-75
2023/05/14 10:53:18;;;;;;;8.15;7.25;;;19.20;99.90;;;;;;5066133;28;20108;-74
2023/05/14 10:55:44;;;;;;;7.10;6.25;;;19.90;99.90;;;;;;5051427;28;20112;-75
2023/05/14 10:58:11;;;;;;;5.88;5.28;;;20.10;99.90;;;;;;5069906;28;20031;-76
2023/05/14 11:00:38;;;;;;;6.43;5.75;;;20.10;99.90;;;;;;5069335;28;20643;-79
2023/05/14 11:03:05;;;;;;;7.93;6.97;;;19.90;99.90;;;;;;5056615;28;20477;-74
2023/05/14 11:05:32;;;;;;;6.80;6.20;;;19.60;99.90;;;;;;5069316;28;20036;-74
2023/05/14 11:07:58;;;;;;;9.10;8.20;;;19.40;99.90;;;;;;5070099;28;20028;-74
2023/05/14 11:10:25;;;;;;;10.55;7.95;;;19.00;99.90;;;;;;5069261;28;20497;-72
2023/05/14 11:12:51;;;;;;;7.88;7.07;;;18.60;99.90;;;;;;5068465;28;20029;-76
2023/05/14 11:15:20;;;;;;;7.63;6.72;;;18.40;99.90;;;;;;5068665;28;20036;-73
2023/05/14 11:17:47;;;;;;;10.52;7.90;;;18.30;99.90;;;;;;5071267;28;20089;-80
2023/05/14 11:20:13;;;;;;;9.90;7.10;;;18.10;99.90;;;;;;5072823;28;20028;-76
2023/05/14 11:22:41;;;;;;;8.30;7.47;;;17.90;99.90;;;;;;5072152;28;20037;-77
2023/05/14 11:25:07;;;;;;;8.07;7.28;;;17.90;99.90;;;;;;5073308;28;20096;-73
2023/05/14 11:27:35;;;;;;;9.57;7.13;;;17.90;99.90;;;;;;5073477;28;20527;-77
2023/05/14 11:30:02;;;;;;;7.15;6.43;;;18.00;99.90;;;;;;5068954;28;20479;-79
2023/05/14 11:32:30;;;;;;;8.25;7.20;;;18.30;99.90;;;;;;5071868;28;20028;-76
2023/05/14 11:34:56;;;;;;;8.70;7.30;;;18.90;99.90;;;;;;5073159;28;20031;-77
2023/05/14 11:37:21;;;;;;;8.93;6.43;;;19.70;99.90;;;;;;5071589;28;20111;-74
2023/05/14 11:39:52;;;;;;;6.88;6.18;;;20.30;99.90;;;;;;5067428;28;20473;-77
2023/05/14 11:42:18;;;;;;;8.55;6.38;;;21.20;99.90;;;;;;5062054;28;20082;-70
2023/05/14 11:44:50;;;;;;;7.95;6.78;;;21.30;99.90;;;;;;5062026;28;20081;-75
2023/05/14 11:47:17;;;;;;;6.72;6.00;;;21.10;99.90;;;;;;5068404;28;20036;-72
2023/05/14 11:49:43;;;;;;;8.07;6.50;;;20.70;99.90;;;;;;5068685;28;20497;-76
2023/05/14 11:52:10;;;;;;;8.00;6.60;;;20.30;99.90;;;;;;5069312;28;20032;-75
2023/05/14 11:54:36;;;;;;;8.40;5.65;;;19.90;99.90;;;;;;5069824;28;20032;-77
2023/05/14 11:57:07;;;;;;;8.13;5.88;;;19.40;99.90;;;;;;5071297;28;20036;-76
2023/05/14 11:59:33;;;;;;;6.60;5.97;;;19.30;99.90;;;;;;5046619;28;20043;-77
2023/05/14 12:02:01;;;;;;;6.82;6.15;;;19.30;99.90;;;;;;5064722;28;20028;-77
2023/05/14 12:04:28;;;;;;;8.40;6.45;;;19.60;99.90;;;;;;5070714;28;20020;-77
2023/05/14 12:06:56;;;;;;;7.45;6.65;;;20.10;99.90;;;;;;5072002;28;20032;-74
2023/05/14 12:09:22;;;;;;;8.93;6.65;;;20.50;99.90;;;;;;5070205;28;20059;-75
2023/05/14 12:11:49;;;;;;;6.32;5.72;;;20.80;99.90;;;;;;5070312;28;20489;-73
2023/05/14 12:14:17;;;;;;;5.53;5.03;;;20.70;99.90;;;;;;5070825;28;20031;-71
2023/05/14 12:16:45;;;;;;;7.32;6.50;;;20.50;99.90;;;;;;5068167;28;20059;-74
2023/05/14 12:19:13;;;;;;;6.85;6.22;;;20.40;99.90;;;;;;5068324;28;20036;-74
2023/05/14 12:21:39;;;;;;;6.25;5.63;;;20.30;99.90;;;;;;5070839;28;20327;-73
2023/05/14 12:24:21;;;;;;;7.55;5.07;;;20.10;99.90;;;;;;5070375;28;20385;-75
2023/05/14 12:26:48;;;;;;;6.13;5.38;;;19.70;99.90;;;;;;5072699;28;20032;-74
2023/05/14 12:29:14;;;;;;;5.78;5.10;;;19.40;99.90;;;;;;5061644;28;20147;-72
2023/05/14 12:31:47;;;;;;;4.57;4.13;;;19.20;99.90;;;;;;5064460;28;20056;-74
2023/05/14 12:34:14;;;;;;;5.03;4.50;;;19.30;99.90;;;;;;5066088;28;20064;-76
2023/05/14 12:36:39;;;;;;;5.05;4.55;;;19.70;99.90;;;;;;5069792;28;20032;-74
2023/05/14 12:39:05;;;;;;;5.20;4.45;;;20.10;99.80;;;;;;5070426;28;20036;-74
2023/05/14 12:41:32;;;;;;;4.90;4.13;;;19.90;99.90;;;;;;5069605;28;20028;-74
2023/05/14 12:43:58;;;;;;;5.03;3.72;;;19.40;99.90;;;;;;5068661;28;20029;-74
2023/05/14 12:46:26;;;;;;;4.68;4.28;;;19.30;99.90;;;;;;5059548;28;20040;-73
2023/05/14 12:48:52;;;;;;;5.35;4.50;;;19.70;99.90;;;;;;5068443;28;20086;-74
2023/05/14 12:51:18;;;;;;;5.93;4.43;;;20.30;99.90;;;;;;5045806;28;20119;-70
2023/05/14 12:53:43;;;;;;;4.10;3.70;;;20.60;99.90;;;;;;5078312;28;20095;-77
2023/05/14 12:56:09;;;;;;;4.00;3.70;;;20.70;98.80;;;;;;5073901;28;20029;-75
2023/05/14 12:58:35;;;;;;;4.93;3.90;;;21.10;99.50;;;;;;5068820;28;20103;-77
2023/05/14 13:01:01;;;;;;;4.35;4.03;;;21.00;98.60;;;;;;5068082;28;20162;-78
2023/05/14 13:03:26;;;;;;;5.00;4.50;;;20.70;99.60;;;;;;5063523;28;20115;-74
2023/05/14 13:05:52;;;;;;;4.93;4.40;;;20.60;99.60;;;;;;5068249;28;20039;-77
2023/05/14 13:08:20;;;;;;;5.07;4.50;;;20.90;99.40;;;;;;5074992;28;20047;-72
2023/05/14 13:10:46;;;;;;;4.15;3.65;;;21.20;99.50;;;;;;5073341;28;20024;-73
2023/05/14 13:13:14;;;;;;;4.15;3.20;;;21.70;98.20;;;;;;5065829;28;20029;-74
2023/05/14 13:15:40;;;;;;;3.67;3.38;;;21.30;95.60;;;;;;5066394;28;20481;-76
2023/05/14 13:18:05;;;;;;;4.00;3.60;;;20.90;96.40;;;;;;5070667;28;20035;-78
2023/05/14 13:20:33;;;;;;;3.88;3.20;;;20.40;97.00;;;;;;5083878;28;20034;-78
2023/05/14 13:22:58;;;;;;;3.85;3.55;;;20.10;98.30;;;;;;5073684;28;20550;-77
2023/05/14 13:25:24;;;;;;;5.40;3.92;;;19.80;98.60;;;;;;5072748;28;20024;-78
2023/05/14 13:27:50;;;;;;;6.15;4.03;;;19.50;98.60;;;;;;5070845;28;20115;-77
2023/05/14 13:30:19;;;;;;;5.05;3.92;;;19.30;99.10;;;;;;5067234;28;20037;-74
2023/05/14 13:32:44;;;;;;;5.43;4.60;;;19.00;99.90;;;;;;5061623;28;20108;-74
2023/05/14 13:35:11;;;;;;;4.50;4.10;;;19.20;99.90;;;;;;5073281;28;20107;-75
2023/05/14 13:37:36;;;;;;;5.53;3.85;;;19.30;99.90;;;;;;5075658;28;20029;-75
2023/05/14 13:40:08;;;;;;;6.28;4.28;;;19.30;99.90;;;;;;5068209;28;20029;-76